Time;durP1;ratioP1;P1;durP2;ratioP2;P2;SDS_P1;SDS_P2;PMS_P1;PMS_P2;Temp;Humidity;BMP_temperature;BMP_pressure;BME280_temperature;BME280_humidity;BME280_pressure;Samples;Min_cycle;Max_cycle;Signal;HPM_P1;HPM_P2
2022/07/31 00:01:34;;;;;;;;;;;22.40;99.90;;;;;;5075305;28;19947;-83
2022/07/31 00:04:00;;;;;;;;;;;22.30;99.90;;;;;;5075369;28;20284;-82
2022/07/31 00:06:26;;;;;;;;;;;22.30;99.90;;;;;;5075330;28;19999;-82
2022/07/31 00:08:51;;;;;;;;;;;22.30;99.90;;;;;;5075238;28;19909;-80
2022/07/31 00:11:17;;;;;;;;;;;22.50;99.90;;;;;;5075387;28;19985;-82
2022/07/31 00:13:43;;;;;;;;;;;22.40;99.90;;;;;;5075727;28;19909;-82
2022/07/31 00:16:08;;;;;;;;;;;22.40;99.90;;;;;;5075091;28;19908;-82
2022/07/31 00:18:34;;;;;;;;;;;22.30;99.90;;;;;;5075045;28;20410;-78
2022/07/31 00:21:00;;;;;;;;;;;22.40;99.90;;;;;;5075416;28;19994;-84
2022/07/31 00:23:27;;;;;;;;;;;22.50;99.90;;;;;;5074883;28;20411;-81
2022/07/31 00:25:52;;;;;;;;;;;22.60;99.90;;;;;;5075478;28;19908;-81
2022/07/31 00:28:18;;;;;;;;;;;22.50;99.90;;;;;;5074850;28;20273;-82
2022/07/31 00:30:43;;;;;;;;;;;22.30;99.90;;;;;;5075283;28;19995;-82
2022/07/31 00:33:09;;;;;;;;;;;22.20;99.90;;;;;;5074747;28;19909;-80
2022/07/31 00:35:34;;;;;;;;;;;22.30;99.90;;;;;;5074719;28;20425;-82
2022/07/31 00:38:00;;;;;;;;;;;22.30;99.90;;;;;;5074882;28;19912;-83
2022/07/31 00:40:26;;;;;;;;;;;22.40;99.90;;;;;;5074654;28;19909;-82
2022/07/31 00:42:51;;;;;;;;;;;22.50;99.90;;;;;;5074306;28;19912;-82
2022/07/31 00:45:17;;;;;;;;;;;22.30;99.90;;;;;;5056316;28;19952;-82
2022/07/31 00:47:42;;;;;;;;;;;22.30;99.90;;;;;;5074450;28;19912;-83
2022/07/31 00:50:08;;;;;;;;;;;22.30;99.90;;;;;;5074414;28;20008;-79
2022/07/31 00:52:34;;;;;;;;;;;22.40;99.90;;;;;;5074383;28;19908;-82
2022/07/31 00:55:00;;;;;;;;;;;22.50;99.90;;;;;;5074324;28;19982;-79
2022/07/31 00:57:25;;;;;;;;;;;22.40;99.90;;;;;;5074280;28;19908;-80
2022/07/31 00:59:51;;;;;;;;;;;22.30;99.90;;;;;;5074633;28;19930;-81
2022/07/31 01:02:16;;;;;;;;;;;22.40;99.90;;;;;;5074159;28;19916;-81
2022/07/31 01:04:42;;;;;;;;;;;22.50;99.90;;;;;;5074202;28;19915;-79
2022/07/31 01:07:08;;;;;;;;;;;22.40;99.90;;;;;;5074133;28;19919;-81
2022/07/31 01:09:33;;;;;;;;;;;22.60;99.90;;;;;;5074271;28;19909;-82
2022/07/31 01:12:05;;;;;;;;;;;22.30;99.90;;;;;;5074298;28;19915;-81
2022/07/31 01:14:32;;;;;;;;;;;22.30;99.90;;;;;;5073482;28;20302;-79
2022/07/31 01:16:59;;;;;;;;;;;22.30;99.90;;;;;;5074017;28;19913;-83
2022/07/31 01:19:31;;;;;;;;;;;22.30;99.90;;;;;;5073924;28;19916;-78
2022/07/31 01:22:08;;;;;;;;;;;22.20;99.90;;;;;;5073979;28;19913;-82
2022/07/31 01:24:43;;;;;;;;;;;22.10;99.90;;;;;;5074047;28;19912;-81
2022/07/31 01:27:27;;;;;;;;;;;22.10;99.90;;;;;;5074277;28;19916;-81
2022/07/31 01:29:55;;;;;;;;;;;22.10;99.90;;;;;;5074571;28;19954;-81
2022/07/31 01:32:26;;;;;;;;;;;22.10;99.90;;;;;;5073679;28;19915;-83
2022/07/31 01:34:53;;;;;;;;;;;22.10;99.90;;;;;;5073724;28;19909;-82
2022/07/31 01:37:19;;;;;;;;;;;22.20;99.90;;;;;;5073953;28;20322;-83
2022/07/31 01:40:05;;;;;;;;;;;22.10;99.90;;;;;;5073873;28;19912;-81
2022/07/31 01:42:33;;;;;;;;;;;22.10;99.90;;;;;;5073674;28;20003;-83
2022/07/31 01:45:02;;;;;;;;;;;22.30;99.90;;;;;;5072398;28;20209;-80
2022/07/31 01:47:28;;;;;;;;;;;22.30;99.90;;;;;;5073591;28;19988;-83
2022/07/31 01:49:54;;;;;;;;;;;22.10;99.90;;;;;;5073622;28;19943;-80
2022/07/31 01:52:21;;;;;;;;;;;22.10;99.90;;;;;;5073642;28;19909;-80
2022/07/31 01:54:47;;;;;;;;;;;22.20;99.90;;;;;;5073570;28;19936;-85
2022/07/31 01:57:14;;;;;;;;;;;22.30;99.90;;;;;;5073501;28;19916;-81
2022/07/31 01:59:40;;;;;;;;;;;22.30;99.90;;;;;;5073651;28;20007;-81
2022/07/31 02:02:06;;;;;;;;;;;22.30;99.90;;;;;;5073717;28;19912;-80
2022/07/31 02:04:31;;;;;;;;;;;22.20;99.90;;;;;;5073437;28;19930;-83
2022/07/31 02:06:58;;;;;;;;;;;22.10;99.90;;;;;;5073874;28;19952;-80
2022/07/31 02:09:24;;;;;;;;;;;22.00;99.90;;;;;;5073605;28;19908;-83
2022/07/31 02:11:50;;;;;;;;;;;22.00;99.90;;;;;;5073494;28;20403;-78
2022/07/31 02:14:17;;;;;;;;;;;22.10;99.90;;;;;;5073460;28;19916;-78
2022/07/31 02:16:43;;;;;;;;;;;22.00;99.90;;;;;;5073870;28;20241;-79
2022/07/31 02:19:10;;;;;;;;;;;21.90;99.90;;;;;;5073341;28;19979;-78
2022/07/31 02:21:36;;;;;;;;;;;21.80;99.90;;;;;;5073295;28;19934;-81
2022/07/31 02:24:02;;;;;;;;;;;21.80;99.90;;;;;;5073630;28;19912;-79
2022/07/31 02:26:27;;;;;;;;;;;21.90;99.90;;;;;;5059016;28;20336;-79
2022/07/31 02:28:53;;;;;;;;;;;21.90;99.90;;;;;;5077165;28;20348;-79
2022/07/31 02:31:20;;;;;;;;;;;22.00;99.90;;;;;;5077984;28;19913;-78
2022/07/31 02:33:46;;;;;;;;;;;21.80;99.90;;;;;;5077122;28;20286;-80
2022/07/31 02:36:12;;;;;;;;;;;21.80;99.90;;;;;;5077012;28;19991;-82
2022/07/31 02:38:38;;;;;;;;;;;21.90;99.90;;;;;;5076916;28;19912;-79
2022/07/31 02:41:05;;;;;;;;;;;22.00;99.90;;;;;;5076919;28;19909;-82
2022/07/31 02:43:31;;;;;;;;;;;22.10;99.90;;;;;;5076571;28;19927;-82
2022/07/31 02:45:57;;;;;;;;;;;22.20;99.90;;;;;;5076840;28;19912;-83
2022/07/31 02:48:24;;;;;;;;;;;22.20;99.90;;;;;;5076746;28;19909;-81
2022/07/31 02:50:50;;;;;;;;;;;22.10;99.90;;;;;;5076928;28;19908;-84
2022/07/31 02:53:15;;;;;;;;;;;22.10;99.90;;;;;;5076710;28;19990;-81
2022/07/31 02:55:42;;;;;;;;;;;21.90;99.90;;;;;;5076613;28;20284;-83
2022/07/31 02:58:08;;;;;;;;;;;21.90;99.90;;;;;;5076558;28;19919;-81
2022/07/31 03:00:33;;;;;;;;;;;21.90;99.90;;;;;;5076546;28;19908;-82
2022/07/31 03:02:59;;;;;;;;;;;21.90;99.90;;;;;;5076444;28;19967;-81
2022/07/31 03:05:25;;;;;;;;;;;21.90;99.90;;;;;;5076817;28;19958;-81
2022/07/31 03:07:50;;;;;;;;;;;21.80;99.90;;;;;;5076458;28;19914;-80
2022/07/31 03:10:16;;;;;;;;;;;22.00;99.90;;;;;;5076465;28;19908;-82
2022/07/31 03:12:44;;;;;;;;;;;22.10;99.90;;;;;;5076361;28;19908;-81
2022/07/31 03:15:14;;;;;;;;;;;22.10;99.90;;;;;;5076319;28;19908;-79
2022/07/31 03:17:40;;;;;;;;;;;22.20;99.90;;;;;;5076235;28;19916;-82
2022/07/31 03:20:06;;;;;;;;;;;22.30;99.90;;;;;;5076265;28;19954;-80
2022/07/31 03:22:32;;;;;;;;;;;22.10;99.90;;;;;;5076618;28;19912;-80
2022/07/31 03:24:58;;;;;;;;;;;21.60;99.90;;;;;;5076542;28;19917;-81
2022/07/31 03:27:24;;;;;;;;;;;21.60;99.90;;;;;;5076069;28;19920;-81
2022/07/31 03:29:50;;;;;;;;;;;21.50;99.90;;;;;;5076619;28;19913;-81
2022/07/31 03:32:15;;;;;;;;;;;21.50;99.90;;;;;;5076127;28;19909;-83
2022/07/31 03:34:41;;;;;;;;;;;21.50;99.90;;;;;;5076186;28;20375;-81
2022/07/31 03:37:07;;;;;;;;;;;21.40;99.90;;;;;;5075208;28;19908;-81
2022/07/31 03:39:32;;;;;;;;;;;21.30;99.90;;;;;;5075929;28;19937;-78
2022/07/31 03:41:59;;;;;;;;;;;21.20;99.90;;;;;;5075893;28;19919;-81
2022/07/31 03:44:24;;;;;;;;;;;21.20;99.90;;;;;;5075574;28;19920;-79
2022/07/31 03:46:51;;;;;;;;;;;21.30;99.90;;;;;;5075926;28;19909;-83
2022/07/31 03:49:16;;;;;;;;;;;21.20;99.90;;;;;;5075643;28;19908;-80
2022/07/31 03:51:42;;;;;;;;;;;20.90;99.90;;;;;;5075767;28;19909;-82
2022/07/31 03:54:08;;;;;;;;;;;21.00;99.90;;;;;;5075614;28;20042;-81
2022/07/31 03:56:34;;;;;;;;;;;21.10;99.90;;;;;;5075609;28;19918;-82
2022/07/31 03:59:01;;;;;;;;;;;21.30;99.90;;;;;;5076046;28;19909;-83
2022/07/31 04:01:26;;;;;;;;;;;21.00;99.90;;;;;;5057521;28;20277;-81
2022/07/31 04:03:58;;;;;;;;;;;21.00;99.90;;;;;;5075307;28;19912;-81
2022/07/31 04:06:24;;;;;;;;;;;21.00;99.90;;;;;;5075445;28;19999;-78
2022/07/31 04:08:49;;;;;;;;;;;21.30;99.90;;;;;;5075272;28;19948;-80
2022/07/31 04:11:15;;;;;;;;;;;21.30;99.90;;;;;;5075233;28;19908;-83
2022/07/31 04:13:41;;;;;;;;;;;21.20;99.90;;;;;;5075485;28;19912;-78
2022/07/31 04:16:06;;;;;;;;;;;21.30;99.90;;;;;;5075232;28;19909;-82
2022/07/31 04:18:33;;;;;;;;;;;21.10;99.90;;;;;;5075193;28;19915;-83
2022/07/31 04:20:58;;;;;;;;;;;21.00;99.90;;;;;;5075033;28;19919;-82
2022/07/31 04:23:24;;;;;;;;;;;21.10;99.90;;;;;;5074937;28;19912;-81
2022/07/31 04:25:50;;;;;;;;;;;21.30;99.90;;;;;;5074930;28;19962;-81
2022/07/31 04:28:16;;;;;;;;;;;21.20;99.90;;;;;;5075133;28;19912;-81
2022/07/31 04:30:41;;;;;;;;;;;21.10;99.90;;;;;;5075380;28;19908;-83
2022/07/31 04:33:07;;;;;;;;;;;21.10;99.90;;;;;;5074763;28;19951;-81
2022/07/31 04:35:32;;;;;;;;;;;21.10;99.90;;;;;;5074767;28;19934;-82
2022/07/31 04:37:58;;;;;;;;;;;21.20;99.90;;;;;;5074759;28;19916;-82
2022/07/31 04:40:26;;;;;;;;;;;21.10;99.90;;;;;;5074672;28;19909;-79
2022/07/31 04:42:52;;;;;;;;;;;21.00;99.90;;;;;;5074315;28;20066;-85
2022/07/31 04:45:18;;;;;;;;;;;20.80;99.90;;;;;;5074818;28;19916;-81
2022/07/31 04:47:43;;;;;;;;;;;20.90;99.90;;;;;;5073811;28;20002;-81
2022/07/31 04:50:09;;;;;;;;;;;21.00;99.90;;;;;;5074610;28;19909;-79
2022/07/31 04:52:35;;;;;;;;;;;21.20;99.90;;;;;;5056433;28;19908;-83
2022/07/31 04:55:00;;;;;;;;;;;21.10;99.90;;;;;;5074476;28;20415;-78
2022/07/31 04:57:26;;;;;;;;;;;21.20;99.90;;;;;;5074320;28;19913;-82
2022/07/31 04:59:52;;;;;;;;;;;21.20;99.90;;;;;;5074264;28;19944;-83
2022/07/31 05:02:17;;;;;;;;;;;21.10;99.90;;;;;;5074579;28;19916;-81
2022/07/31 05:04:43;;;;;;;;;;;21.00;99.90;;;;;;5074308;28;20369;-83
2022/07/31 05:07:08;;;;;;;;;;;20.90;99.90;;;;;;5074114;28;19916;-80
2022/07/31 05:09:34;;;;;;;;;;;20.80;99.90;;;;;;5074229;28;19958;-83
2022/07/31 05:12:00;;;;;;;;;;;20.70;99.90;;;;;;5074091;28;19932;-78
2022/07/31 05:14:26;;;;;;;;;;;20.80;99.90;;;;;;5074195;28;19908;-83
2022/07/31 05:16:51;;;;;;;;;;;20.90;99.90;;;;;;5074054;28;20003;-79
2022/07/31 05:19:17;;;;;;;;;;;20.90;99.90;;;;;;5073983;28;19994;-82
2022/07/31 05:21:43;;;;;;;;;;;20.70;99.90;;;;;;5073978;28;20360;-80
2022/07/31 05:24:09;;;;;;;;;;;20.80;99.90;;;;;;5055954;28;19913;-80
2022/07/31 05:26:34;;;;;;;;;;;20.70;99.90;;;;;;5074048;28;19915;-81
2022/07/31 05:29:01;;;;;;;;;;;20.90;99.90;;;;;;5073982;28;19909;-84
2022/07/31 05:31:27;;;;;;;;;;;21.00;99.90;;;;;;5074364;28;20414;-80
2022/07/31 05:33:53;;;;;;;;;;;21.20;99.90;;;;;;5073834;28;19908;-82
2022/07/31 05:36:19;;;;;;;;;;;21.30;99.90;;;;;;5073771;28;19908;-81
2022/07/31 05:38:44;;;;;;;;;;;21.30;99.90;;;;;;5073767;28;19962;-82
2022/07/31 05:41:10;;;;;;;;;;;21.50;99.90;;;;;;5073701;28;20003;-81
2022/07/31 05:43:36;;;;;;;;;;;21.60;99.90;;;;;;5073460;28;19960;-79
2022/07/31 05:46:02;;;;;;;;;;;21.60;99.90;;;;;;5055626;28;20377;-81
2022/07/31 05:48:27;;;;;;;;;;;21.50;99.90;;;;;;5073692;28;20180;-79
2022/07/31 05:50:53;;;;;;;;;;;21.70;99.90;;;;;;5073752;28;20284;-84
2022/07/31 05:53:19;;;;;;;;;;;21.70;99.90;;;;;;5073704;28;19908;-78
2022/07/31 05:55:47;;;;;;;;;;;21.80;99.90;;;;;;5073578;28;20383;-81
2022/07/31 05:58:13;;;;;;;;;;;21.80;99.90;;;;;;5073953;28;19916;-78
2022/07/31 06:00:39;;;;;;;;;;;21.90;99.90;;;;;;5076385;28;19960;-81
2022/07/31 06:03:04;;;;;;;;;;;21.90;99.90;;;;;;5077728;28;19913;-84
2022/07/31 06:05:31;;;;;;;;;;;22.10;99.90;;;;;;5077689;28;19908;-82
2022/07/31 06:07:57;;;;;;;;;;;22.10;99.90;;;;;;5077839;28;19908;-82
2022/07/31 06:10:23;;;;;;;;;;;22.00;99.90;;;;;;5059550;28;20288;-83
2022/07/31 06:12:49;;;;;;;;;;;21.60;99.90;;;;;;5059531;28;19909;-77
2022/07/31 06:15:15;;;;;;;;;;;21.40;99.90;;;;;;5077705;28;19915;-82
2022/07/31 06:17:42;;;;;;;;;;;21.50;99.90;;;;;;5077624;28;20391;-81
2022/07/31 06:20:08;;;;;;;;;;;21.70;99.90;;;;;;5077391;28;20281;-81
2022/07/31 06:22:34;;;;;;;;;;;22.00;99.90;;;;;;5077260;28;19916;-82
2022/07/31 06:25:00;;;;;;;;;;;22.10;99.90;;;;;;5077283;28;20373;-82
2022/07/31 06:30:10;;;;;;;;;;;22.40;99.90;;;;;;5077221;28;19915;-85
2022/07/31 06:32:36;;;;;;;;;;;22.60;99.90;;;;;;5077869;28;20350;-81
2022/07/31 06:35:02;;;;;;;;;;;22.60;99.90;;;;;;5059066;28;19934;-81
2022/07/31 06:37:27;;;;;;;;;;;22.40;99.90;;;;;;5077028;28;19995;-82
2022/07/31 06:39:53;;;;;;;;;;;22.60;99.90;;;;;;5077165;28;19997;-83
2022/07/31 06:42:19;;;;;;;;;;;22.60;99.90;;;;;;5076711;28;20047;-82
2022/07/31 06:44:45;;;;;;;;;;;22.70;99.90;;;;;;5076499;28;19920;-82
2022/07/31 06:47:10;;;;;;;;;;;22.50;99.90;;;;;;5076831;28;19915;-80
2022/07/31 06:49:36;;;;;;;;;;;22.40;99.90;;;;;;5076739;28;19909;-80
2022/07/31 06:52:02;;;;;;;;;;;22.30;99.90;;;;;;5076731;28;19912;-83
2022/07/31 06:54:27;;;;;;;;;;;22.30;99.90;;;;;;5076670;28;19959;-82
2022/07/31 06:56:53;;;;;;;;;;;22.20;99.90;;;;;;5076605;28;19908;-81
2022/07/31 06:59:18;;;;;;;;;;;21.70;99.90;;;;;;5076567;28;20368;-83
2022/07/31 07:01:44;;;;;;;;;;;21.60;99.90;;;;;;5076538;28;19969;-81
2022/07/31 07:04:09;;;;;;;;;;;21.80;99.90;;;;;;5076765;28;19935;-82
2022/07/31 07:06:35;;;;;;;;;;;21.70;99.90;;;;;;5076487;28;19909;-80
2022/07/31 07:09:01;;;;;;;;;;;21.70;99.90;;;;;;5076422;28;19909;-83
2022/07/31 07:11:26;;;;;;;;;;;21.50;99.90;;;;;;5075287;28;19934;-83
2022/07/31 07:13:52;;;;;;;;;;;21.50;99.90;;;;;;5076594;28;19909;-83
2022/07/31 07:16:17;;;;;;;;;;;21.60;99.90;;;;;;5076310;28;19913;-83
2022/07/31 07:18:43;;;;;;;;;;;21.90;99.90;;;;;;5076597;28;19966;-78
2022/07/31 07:21:09;;;;;;;;;;;22.00;99.90;;;;;;5076423;28;19912;-82
2022/07/31 07:23:34;;;;;;;;;;;21.90;99.90;;;;;;5076288;28;19995;-83
2022/07/31 07:26:00;;;;;;;;;;;22.30;99.90;;;;;;5076112;28;20270;-83
2022/07/31 07:28:26;;;;;;;;;;;22.30;99.90;;;;;;5076080;28;19954;-78
2022/07/31 07:30:51;;;;;;;;;;;22.30;99.90;;;;;;5076585;28;19909;-82
2022/07/31 07:33:17;;;;;;;;;;;22.30;99.90;;;;;;5076153;28;20007;-82
2022/07/31 07:35:42;;;;;;;;;;;22.20;99.90;;;;;;5075973;28;20281;-83
2022/07/31 07:38:08;;;;;;;;;;;22.30;99.90;;;;;;5075894;28;19973;-80
2022/07/31 07:40:34;;;;;;;;;;;22.70;99.90;;;;;;5075882;28;19909;-81
2022/07/31 07:42:59;;;;;;;;;;;22.70;99.90;;;;;;5075566;28;20364;-79
2022/07/31 07:45:25;;;;;;;;;;;22.90;99.90;;;;;;5057494;28;19909;-80
2022/07/31 07:47:51;;;;;;;;;;;22.90;99.90;;;;;;5075683;28;19908;-79
2022/07/31 07:50:16;;;;;;;;;;;23.00;99.90;;;;;;5076035;28;19908;-81
2022/07/31 07:52:42;;;;;;;;;;;23.30;99.90;;;;;;5075676;28;19908;-82
2022/07/31 07:55:08;;;;;;;;;;;23.40;99.90;;;;;;5075876;28;19912;-82
2022/07/31 07:57:35;;;;;;;;;;;23.40;99.90;;;;;;5075598;28;20395;-79
2022/07/31 08:00:10;;;;;;;;;;;23.50;99.90;;;;;;5075544;28;19916;-85
2022/07/31 08:02:36;;;;;;;;;;;23.40;99.90;;;;;;5075603;28;19981;-81
2022/07/31 08:05:02;;;;;;;;;;;23.40;99.90;;;;;;5075425;28;20385;-80
2022/07/31 08:07:28;;;;;;;;;;;23.20;99.90;;;;;;5075410;28;20360;-83
2022/07/31 08:09:54;;;;;;;;;;;22.70;99.90;;;;;;5075289;28;20341;-80
2022/07/31 08:12:19;;;;;;;;;;;22.80;99.90;;;;;;5075258;28;19959;-81
2022/07/31 08:14:45;;;;;;;;;;;22.70;99.90;;;;;;5075332;28;19913;-79
2022/07/31 08:17:11;;;;;;;;;;;22.40;99.90;;;;;;5075137;28;19909;-80
2022/07/31 08:19:37;;;;;;;;;;;22.40;99.90;;;;;;5075129;28;19915;-85
2022/07/31 08:22:02;;;;;;;;;;;22.40;99.90;;;;;;5075020;28;20389;-80
2022/07/31 08:24:28;;;;;;;;;;;22.70;99.90;;;;;;5057459;28;19916;-78
2022/07/31 08:29:37;;;;;;;;;;;22.80;99.90;;;;;;5074712;28;20341;-81
2022/07/31 08:32:03;;;;;;;;;;;22.70;99.90;;;;;;5075414;28;20007;-78
2022/07/31 08:34:29;;;;;;;;;;;23.00;99.90;;;;;;5074814;28;19908;-80
2022/07/31 08:36:54;;;;;;;;;;;22.80;99.90;;;;;;5074738;28;20407;-81
2022/07/31 08:39:20;;;;;;;;;;;22.80;99.90;;;;;;5074812;28;19967;-82
2022/07/31 08:41:45;;;;;;;;;;;22.80;99.90;;;;;;5074611;28;19912;-80
2022/07/31 08:44:11;;;;;;;;;;;22.80;99.90;;;;;;5074366;28;19920;-81
2022/07/31 08:46:37;;;;;;;;;;;22.80;99.90;;;;;;5074869;28;20387;-82
2022/07/31 08:49:04;;;;;;;;;;;23.20;99.90;;;;;;5074449;28;19995;-81
2022/07/31 08:51:40;;;;;;;;;;;23.40;99.90;;;;;;5074446;28;19912;-82
2022/07/31 08:54:07;;;;;;;;;;;23.70;99.90;;;;;;5074672;28;19962;-84
2022/07/31 08:56:36;;;;;;;;;;;23.80;99.90;;;;;;5074366;28;19908;-82
2022/07/31 08:59:05;;;;;;;;;;;24.50;99.90;;;;;;5074377;28;19908;-81
2022/07/31 09:01:35;;;;;;;;;;;25.00;99.10;;;;;;5074212;28;19944;-79
2022/07/31 09:04:01;;;;;;;;;;;25.20;97.00;;;;;;5074162;28;19958;-82
2022/07/31 09:06:26;;;;;;;;;;;25.20;97.40;;;;;;5074508;28;19916;-79
2022/07/31 09:08:54;;;;;;;;;;;25.40;97.50;;;;;;5074284;28;19909;-83
2022/07/31 09:11:20;;;;;;;;;;;26.10;94.60;;;;;;5074053;28;19990;-84
2022/07/31 09:13:55;;;;;;;;;;;26.80;93.20;;;;;;5074102;28;19909;-80
2022/07/31 09:16:21;;;;;;;;;;;27.30;91.40;;;;;;5074147;28;20352;-85
2022/07/31 09:18:56;;;;;;;;;;;27.10;89.70;;;;;;5074070;28;19969;-83
2022/07/31 09:21:22;;;;;;;;;;;26.50;91.00;;;;;;5073977;28;19909;-82
2022/07/31 09:23:48;;;;;;;;;;;26.20;91.50;;;;;;5073856;28;19924;-79
2022/07/31 09:26:14;;;;;;;;;;;26.20;92.50;;;;;;5055878;28;19916;-83
2022/07/31 09:28:48;;;;;;;;;;;26.70;91.20;;;;;;5073975;28;19908;-83
2022/07/31 09:31:14;;;;;;;;;;;27.00;91.10;;;;;;5074461;28;19915;-82
2022/07/31 09:33:43;;;;;;;;;;;28.50;89.40;;;;;;5073338;28;19916;-81
2022/07/31 09:36:09;;;;;;;;;;;29.70;83.50;;;;;;5073722;28;19909;-82
2022/07/31 09:38:39;;;;;;;;;;;28.60;82.20;;;;;;5073711;28;19958;-81
2022/07/31 09:41:11;;;;;;;;;;;27.80;84.30;;;;;;5073672;28;20376;-83
2022/07/31 09:43:37;;;;;;;;;;;27.70;88.10;;;;;;5073630;28;19921;-86
2022/07/31 09:46:04;;;;;;;;;;;28.70;83.00;;;;;;5073609;28;19977;-80
2022/07/31 09:48:30;;;;;;;;;;;28.00;83.00;;;;;;5073624;28;19916;-84
2022/07/31 09:50:57;;;;;;;;;;;28.30;84.70;;;;;;5074234;28;19908;-84
2022/07/31 09:53:22;;;;;;;;;;;28.30;81.40;;;;;;5073605;28;19909;-82
2022/07/31 09:55:51;;;;;;;;;;;28.30;83.60;;;;;;5073572;28;19913;-82
2022/07/31 09:58:17;;;;;;;;;;;29.00;81.20;;;;;;5073822;28;19915;-84
2022/07/31 10:00:44;;;;;;;;;;;30.20;76.70;;;;;;5073449;28;19915;-83
2022/07/31 10:03:12;;;;;;;;;;;32.80;70.90;;;;;;5073559;28;19936;-84
2022/07/31 10:05:40;;;;;;;;;;;34.50;65.50;;;;;;5073498;28;19908;-80
2022/07/31 10:08:06;;;;;;;;;;;33.00;63.70;;;;;;5073433;28;19915;-80
2022/07/31 10:10:32;;;;;;;;;;;34.70;64.70;;;;;;5073370;28;19978;-84
2022/07/31 10:13:00;;;;;;;;;;;37.60;58.00;;;;;;5073586;28;20002;-80
2022/07/31 10:15:26;;;;;;;;;;;36.40;55.50;;;;;;5073334;28;20269;-80
2022/07/31 10:17:53;;;;;;;;;;;32.90;59.60;;;;;;5073417;28;19991;-83
2022/07/31 10:20:21;;;;;;;;;;;33.40;61.30;;;;;;5073852;28;19961;-79
2022/07/31 10:22:59;;;;;;;;;;;32.10;61.90;;;;;;5073456;28;19912;-80
2022/07/31 10:25:26;;;;;;;;;;;34.90;60.30;;;;;;5073445;28;19909;-81
2022/07/31 10:27:53;;;;;;;;;;;35.30;57.80;;;;;;5073274;28;19909;-80
2022/07/31 10:30:19;;;;;;;;;;;36.30;57.70;;;;;;5073249;28;19920;-82
2022/07/31 10:32:45;;;;;;;;;;;40.30;53.50;;;;;;5073967;28;19915;-80
2022/07/31 10:35:11;;;;;;;;;;;42.20;49.20;;;;;;5073342;28;19909;-81
2022/07/31 10:37:42;;;;;;;;;;;42.40;47.30;;;;;;5073179;28;19908;-78
2022/07/31 10:40:08;;;;;;;;;;;41.90;47.20;;;;;;5073174;28;20372;-81
2022/07/31 10:42:43;;;;;;;;;;;41.00;46.60;;;;;;5073023;28;19920;-80
2022/07/31 10:45:10;;;;;;;;;;;40.50;47.10;;;;;;5073830;28;19924;-81
2022/07/31 10:47:35;;;;;;;;;;;41.90;46.80;;;;;;5076778;28;20438;-81
2022/07/31 10:50:05;;;;;;;;;;;42.50;45.60;;;;;;5076813;28;19913;-81
2022/07/31 10:52:33;;;;;;;;;;;42.10;45.30;;;;;;5076991;28;19958;-84
2022/07/31 10:55:02;;;;;;;;;;;43.80;44.80;;;;;;5076997;28;20330;-82
2022/07/31 10:57:28;;;;;;;;;;;44.90;43.60;;;;;;5076686;28;19908;-80
2022/07/31 10:59:54;;;;;;;;;;;43.70;43.50;;;;;;5076615;28;19908;-82
2022/07/31 11:02:27;;;;;;;;;;;45.20;43.50;;;;;;5076485;28;19913;-82
2022/07/31 11:04:52;;;;;;;;;;;46.60;42.60;;;;;;5076551;28;19916;-80
2022/07/31 11:07:18;;;;;;;;;;;45.40;41.60;;;;;;5076466;28;19912;-80
2022/07/31 11:09:44;;;;;;;;;;;45.30;41.70;;;;;;5076478;28;19931;-83
2022/07/31 11:12:17;;;;;;;;;;;46.40;41.50;;;;;;5076395;28;20368;-82
2022/07/31 11:14:42;;;;;;;;;;;47.10;40.90;;;;;;5076437;28;19915;-82
2022/07/31 11:17:08;;;;;;;;;;;44.90;41.10;;;;;;5076360;28;19912;-82
2022/07/31 11:19:38;;;;;;;;;;;42.30;42.00;;;;;;5076340;28;19966;-84
2022/07/31 11:22:14;;;;;;;;;;;40.50;44.10;;;;;;5076434;28;19908;-83
2022/07/31 11:24:40;;;;;;;;;;;41.10;43.90;;;;;;5076217;28;19916;-83
2022/07/31 11:27:06;;;;;;;;;;;42.60;43.50;;;;;;5076156;28;19912;-84
2022/07/31 11:29:33;;;;;;;;;;;43.90;42.20;;;;;;5076117;28;19908;-83
2022/07/31 11:32:00;;;;;;;;;;;42.30;42.90;;;;;;5058593;28;19916;-85
2022/07/31 11:34:25;;;;;;;;;;;43.80;42.80;;;;;;5076008;28;20292;-80
2022/07/31 11:36:51;;;;;;;;;;;43.80;42.20;;;;;;5075945;28;19908;-82
2022/07/31 11:39:17;;;;;;;;;;;41.40;43.20;;;;;;5075943;28;19950;-82
2022/07/31 11:41:42;;;;;;;;;;;40.50;44.60;;;;;;5075866;28;19909;-82
2022/07/31 11:44:08;;;;;;;;;;;40.20;44.90;;;;;;5075632;28;19925;-82
2022/07/31 11:46:36;;;;;;;;;;;39.90;45.40;;;;;;5076155;28;19908;-80
2022/07/31 11:49:02;;;;;;;;;;;42.10;44.80;;;;;;5075921;28;19916;-82
2022/07/31 11:51:29;;;;;;;;;;;43.10;42.80;;;;;;5075917;28;19915;-83
2022/07/31 11:53:55;;;;;;;;;;;43.50;42.80;;;;;;5075843;28;19915;-83
2022/07/31 11:56:22;;;;;;;;;;;42.70;43.10;;;;;;5076001;28;19909;-84
2022/07/31 11:58:48;;;;;;;;;;;41.50;44.10;;;;;;5075337;28;20262;-85
2022/07/31 12:01:14;;;;;;;;;;;41.30;44.00;;;;;;5075879;28;19959;-80
2022/07/31 12:03:40;;;;;;;;;;;42.50;43.80;;;;;;5075626;28;20380;-81
2022/07/31 12:06:06;;;;;;;;;;;43.80;43.00;;;;;;5057622;28;19987;-80
2022/07/31 12:08:33;;;;;;;;;;;45.40;41.90;;;;;;5075514;28;19916;-83
2022/07/31 12:11:00;;;;;;;;;;;46.20;40.90;;;;;;5075642;28;19977;-80
2022/07/31 12:13:26;;;;;;;;;;;47.20;40.40;;;;;;5075470;28;19957;-82
2022/07/31 12:16:06;;;;;;;;;;;48.00;39.30;;;;;;5075430;28;20384;-85
2022/07/31 12:18:32;;;;;;;;;;;47.90;39.40;;;;;;5075864;28;20003;-81
2022/07/31 12:20:59;;;;;;;;;;;47.70;38.70;;;;;;5075525;28;19981;-83
2022/07/31 12:23:25;;;;;;;;;;;47.10;39.00;;;;;;5075436;28;19912;-81
2022/07/31 12:25:51;;;;;;;;;;;47.10;39.30;;;;;;5075349;28;19915;-83
2022/07/31 12:28:17;;;;;;;;;;;45.90;39.80;;;;;;5075310;28;20286;-80
2022/07/31 12:30:43;;;;;;;;;;;45.40;39.50;;;;;;5075293;28;19916;-84
2022/07/31 12:33:09;;;;;;;;;;;45.50;39.60;;;;;;5075878;28;19962;-82
2022/07/31 12:35:39;;;;;;;;;;;45.60;39.70;;;;;;5075274;28;19909;-83
2022/07/31 12:38:06;;;;;;;;;;;46.30;39.80;;;;;;5075359;28;19909;-84
2022/07/31 12:40:31;;;;;;;;;;;46.00;39.40;;;;;;5075295;28;19912;-81
2022/07/31 12:43:00;;;;;;;;;;;47.10;38.80;;;;;;5074728;28;19919;-83
2022/07/31 12:45:31;;;;;;;;;;;46.80;39.10;;;;;;5075090;28;20019;-82
2022/07/31 12:47:58;;;;;;;;;;;46.50;39.10;;;;;;5074954;28;19908;-82
2022/07/31 12:50:24;;;;;;;;;;;46.80;38.60;;;;;;5075155;28;19956;-85
2022/07/31 12:52:50;;;;;;;;;;;47.40;39.30;;;;;;5074961;28;20399;-83
2022/07/31 12:55:16;;;;;;;;;;;48.60;37.90;;;;;;5074909;28;19908;-81
2022/07/31 12:57:42;;;;;;;;;;;46.90;38.30;;;;;;5075068;28;19915;-84
2022/07/31 13:00:07;;;;;;;;;;;44.70;39.90;;;;;;5056850;28;19908;-80
2022/07/31 13:02:33;;;;;;;;;;;44.80;39.70;;;;;;5074720;28;19913;-81
2022/07/31 13:04:59;;;;;;;;;;;45.60;39.40;;;;;;5056774;28;19908;-84
2022/07/31 13:07:24;;;;;;;;;;;46.40;38.90;;;;;;5074699;28;19908;-85
2022/07/31 13:09:50;;;;;;;;;;;45.70;39.30;;;;;;5073977;28;19960;-83
2022/07/31 13:12:16;;;;;;;;;;;45.10;39.10;;;;;;5074661;28;20258;-81
2022/07/31 13:14:41;;;;;;;;;;;44.60;40.00;;;;;;5074633;28;19908;-83
2022/07/31 13:17:07;;;;;;;;;;;44.20;40.10;;;;;;5074649;28;19915;-81
2022/07/31 13:19:32;;;;;;;;;;;45.30;39.80;;;;;;5074750;28;19952;-82
2022/07/31 13:21:58;;;;;;;;;;;44.20;40.30;;;;;;5074723;28;19912;-80
2022/07/31 13:24:24;;;;;;;;;;;43.60;41.50;;;;;;5074448;28;19913;-81
2022/07/31 13:26:49;;;;;;;;;;;45.10;40.70;;;;;;5074653;28;19999;-83
2022/07/31 13:29:15;;;;;;;;;;;45.10;40.20;;;;;;5074264;28;19997;-80
2022/07/31 13:31:41;;;;;;;;;;;44.10;41.20;;;;;;5074662;28;20437;-83
2022/07/31 13:34:07;;;;;;;;;;;42.50;41.90;;;;;;5074542;28;19915;-83
2022/07/31 13:36:33;;;;;;;;;;;40.10;44.30;;;;;;5074134;28;19909;-85
2022/07/31 13:38:58;;;;;;;;;;;40.70;44.50;;;;;;5074198;28;19913;-83
2022/07/31 13:41:26;;;;;;;;;;;41.30;44.00;;;;;;5073961;28;19913;-84
2022/07/31 13:43:53;;;;;;;;;;;42.90;42.90;;;;;;5073502;28;19955;-82
2022/07/31 13:46:19;;;;;;;;;;;41.60;42.40;;;;;;5073868;28;19918;-79
2022/07/31 13:48:45;;;;;;;;;;;41.00;44.20;;;;;;5073759;28;19913;-80
2022/07/31 13:51:11;;;;;;;;;;;41.60;43.90;;;;;;5073936;28;20289;-83
2022/07/31 13:53:36;;;;;;;;;;;42.20;43.30;;;;;;5073882;28;19916;-81
2022/07/31 13:56:02;;;;;;;;;;;41.60;43.70;;;;;;5073891;28;19915;-82
2022/07/31 13:58:28;;;;;;;;;;;41.50;43.60;;;;;;5073811;28;19908;-83
2022/07/31 14:00:54;;;;;;;;;;;40.50;44.20;;;;;;5073816;28;19908;-81
2022/07/31 14:03:21;;;;;;;;;;;39.90;44.60;;;;;;5073777;28;19920;-82
2022/07/31 14:05:46;;;;;;;;;;;39.20;45.20;;;;;;5073976;28;19961;-82
2022/07/31 14:08:12;;;;;;;;;;;38.60;46.10;;;;;;5074015;28;19969;-80
2022/07/31 14:10:38;;;;;;;;;;;40.00;45.50;;;;;;5073856;28;19915;-85
2022/07/31 14:13:03;;;;;;;;;;;40.20;45.30;;;;;;5073813;28;19909;-80
2022/07/31 14:15:29;;;;;;;;;;;39.50;46.00;;;;;;5074267;28;20368;-81
2022/07/31 14:17:55;;;;;;;;;;;39.40;45.80;;;;;;5073745;28;19947;-79